Punta Gorda, FL

06:26 PM EDT em 28 de Agosto de 2016 (GMT -0400)
Charlotte County | | Change Station

Elev 26 ft 26.92 °N, 81.99 °W | Updated 33 minutes ago

Partly Cloudy
Parcialmente Nublado
88 °F
Aparente 96 °F
N
14
Vento Variável Vento de ESE
Gusts 23 mph

Hoje
Máxima -- | Mínima -- °F
--% Possibilidade de Precip.
Ontem
Máxima -- | Mínima -- °F
Precip. -- pol
Pressão 29.88 pol
Visibilidade 10.0 milhas
Nuvens Poucas 4700 ft
Índice de Calor 96 °F
Ponto de Orvalho 74 °F
Humidade 63%
Chuva 0.00 pol
Altura de Neve Não disponível
7:05 AM 7:51 PM
Quarto minguante, 13% visible
METAR KPGD 282153Z 12012G20KT 10SM FEW047 31/23 A2987 RMK AO2 SLP116 T03110233
Pressão 29.88 pol
Visibilidade 10.0 milhas
Nuvens Poucas 4700 ft
Índice de Calor 96 °F
Ponto de Orvalho 74 °F
Humidade 63%
Chuva 0.00 pol
Altura de Neve Não disponível
7:05 AM 7:51 PM
Quarto minguante, 13% visible
METAR KPGD 282153Z 12012G20KT 10SM FEW047 31/23 A2987 RMK AO2 SLP116 T03110233

10-Day Weather Forecast

Almanac

Astronomia

Aug. 28, 2016 Nascer Pôr
Hora atual
Crepúsculo civil
Crepúsculo náutico
Crepúsculo astronómico
Lua
Comprimento da luz visível
Duração do Dia
Tomorrow will be .
, % of the Moon is Illuminated

Extremos de Hoje

situação na parte mais alta situação na parte mais baixa

Community

WunderPhotos

Upload Photos

1,935,705 fotografias inseridas!

WunderBlog® & News

Nearby

Qualidade do Ar

  Qualidade do Ar Índice da Q.A. Poluente
Not available.

Altura da Neve

Estação altura Altitude

Actividade Sísmisca

Cidade Distância Mag. Hora & Data
Mínima magnitude apresentada é 2.5.

Temperaturas das Águas Costeiras

Local Temperatura

Stations

Estações Meteorológicas Próximas

Localização da Estação Temp. Sensação Térmica Ponto de Orvalho Humidade Vento Precip. Elev Actualizado Tipo
                   

Watches & Warnings

There are currently no watches in effect.